createdAt,value
2023-03-03T00:00:02.362Z,91.6
2023-03-03T00:15:02.017Z,91.6
2023-03-03T00:30:02.185Z,91.6
2023-03-03T00:45:02.791Z,91.6
2023-03-03T01:00:02.107Z,91.6
2023-03-03T01:15:01.830Z,91.6
2023-03-03T01:30:02.366Z,91.6
2023-03-03T01:45:02.923Z,91.6
2023-03-03T02:00:01.575Z,91.6
2023-03-03T02:15:02.055Z,91.6
2023-03-03T02:30:02.582Z,91.6
2023-03-03T02:45:01.378Z,91.6
2023-03-03T03:00:01.779Z,91.6
2023-03-03T03:15:02.188Z,91.6
2023-03-03T03:30:02.744Z,91.6
2023-03-03T03:45:01.621Z,91.6
2023-03-03T04:00:02.057Z,91.6
2023-03-03T04:15:02.386Z,91.6
2023-03-03T04:30:07.239Z,91.6
2023-03-03T04:45:01.543Z,91.6
2023-03-03T05:00:02.052Z,91.6
2023-03-03T05:15:02.562Z,91.6
2023-03-03T05:30:01.356Z,91.6
2023-03-03T05:45:01.696Z,91.6
2023-03-03T06:00:02.225Z,91.6
2023-03-03T06:15:02.786Z,91.6
2023-03-03T06:30:03.410Z,91.6
2023-03-03T06:45:01.959Z,91.6
2023-03-03T07:00:02.508Z,91.6
2023-03-03T07:15:01.318Z,91.6
2023-03-03T07:30:01.751Z,91.6
2023-03-03T07:45:02.142Z,91.6
2023-03-03T08:00:01.391Z,91.6
2023-03-03T08:15:01.521Z,91.6
2023-03-03T08:30:01.927Z,91.6
2023-03-03T08:45:02.378Z,91.6
2023-03-03T09:00:01.637Z,91.6
2023-03-03T09:15:01.684Z,91.6
2023-03-03T09:30:02.058Z,91.6
2023-03-03T09:45:01.392Z,91.6
2023-03-03T10:00:01.788Z,91.6
2023-03-03T10:15:01.836Z,91.6
2023-03-03T10:30:02.260Z,91.6
2023-03-03T10:45:03.141Z,91.6
2023-03-03T11:00:02.033Z,91.6
2023-03-03T11:15:02.234Z,63.6
2023-03-03T11:30:02.302Z,63.6
2023-03-03T11:45:02.689Z,63.6
2023-03-03T12:00:01.967Z,63.6
2023-03-03T12:15:02.896Z,63.6
2023-03-03T12:30:05.028Z,87.2
2023-03-03T12:45:01.593Z,89.2
2023-03-03T13:00:01.977Z,91.55
2023-03-03T13:15:01.974Z,96.16
2023-03-03T13:30:01.637Z,101.2
2023-03-03T13:45:02.171Z,100.17
2023-03-03T14:00:02.015Z,99.89
2023-03-03T14:15:01.566Z,103.85
2023-03-03T14:30:02.516Z,107.41
2023-03-03T14:45:02.282Z,108.75
2023-03-03T15:00:02.581Z,109.36
2023-03-03T15:15:02.311Z,110.41
2023-03-03T15:30:01.850Z,112.43
2023-03-03T15:45:02.210Z,113.49
2023-03-03T16:00:01.582Z,113.73
2023-03-03T16:15:01.752Z,115.67
2023-03-03T16:30:02.124Z,116.76
2023-03-03T16:45:01.458Z,117.86
2023-03-03T17:00:01.833Z,118.75
2023-03-03T17:15:02.687Z,119.23
2023-03-03T17:30:02.347Z,119.96
2023-03-03T17:45:02.489Z,121.58
2023-03-03T18:00:01.990Z,122.15
2023-03-03T18:15:02.498Z,122.55
2023-03-03T18:30:02.153Z,123.85
2023-03-03T18:45:01.544Z,125.14
2023-03-03T19:00:01.911Z,125.79
2023-03-03T19:15:02.518Z,124.66
2023-03-03T19:30:02.098Z,123.6
2023-03-03T19:45:01.415Z,122.23
2023-03-03T20:00:01.777Z,121.66
2023-03-03T20:15:01.537Z,121.74
2023-03-03T20:30:01.938Z,122.7
2023-03-03T20:45:02.631Z,121.66
2023-03-03T21:00:01.747Z,121.66
2023-03-03T21:15:02.653Z,121.34
2023-03-03T21:30:02.286Z,121.58
2023-03-03T21:45:01.566Z,121.42
2023-03-03T22:00:01.974Z,121.42
2023-03-03T22:15:01.689Z,120.93
2023-03-03T22:30:02.102Z,120.93
2023-03-03T22:45:01.416Z,120.37
2023-03-03T23:00:02.116Z,120.49
2023-03-03T23:15:01.919Z,120.28
2023-03-03T23:30:02.297Z,120.4
2023-03-03T23:45:01.611Z,121.74
